Terminal Aerodrome Forecast
Issued by NWS Blacksburg, VA

Current Version | Previous Version | Text Only | Print | Product List | Glossary Off
Versions: 1 2 3 4 5 6 7 8 9 10 11 12 13 14 15 16 17 18 19 20 21 22 23 24 25 26 27 28 29 30 31 32 33 34

000
FTUS41 KRNK 271236 AAA
TAFBLF
TAF AMD
KBLF 271236Z 2713/2812 25007KT P6SM -SHRA BKN050 OVC100
      TEMPO 2713/2715 3SM TSRA BR OVC035CB
     FM271500 26010KT P6SM SCT050 BKN200
     FM272000 25012G22KT P6SM VCTS BKN040CB
     FM272300 26012G22KT P6SM -SHRA VCTS BKN050CB
     FM280400 26010KT P6SM BKN050=

USA.gov is the U.S. government's official web portal to all federal, state and local government web resources and services.